Bowesville, Ontario

11:27 PM EDT on June 24, 2017 (GMT -0400)
CYOW West Boundary | | Change Station
Active Advisory: Special Weather Statement

Elev 340 ft 45.32 °N, 75.69 °W | Updated 4 seconds ago

Mostly Cloudy
Mostly Cloudy
62.1 °F
Feels Like 62.1 °F
N
2.9
Wind Variable Wind from West
Gusts 2.9 mph

Today
High -- | Low -- °F
--% Chance of Precip.
Yesterday
High -- | Low -- °F
Precip. -- in
Pressure 29.78 in
Visibility 15.0 miles
Clouds Few 5200 ft
Mostly Cloudy 10000 ft
Dew Point 60 °F
Humidity 92%
Rainfall 0.03 in
Snow Depth Not available.
5:15 AM 8:54 PM
New Moon, 2% visible
METAR CYND 250100Z 33002KT 15SM FEW052 BKN100 16/14 A2978 RMK CU1AC5 CU TR LAST STFD OBS/NEXT 251100 UTC SLP085 DENSITY ALT 600FT
Pressure 29.78 in
Visibility 15.0 miles
Clouds Few 5200 ft
Mostly Cloudy 10000 ft
Dew Point 60 °F
Humidity 92%
Rainfall 0.03 in
Snow Depth Not available.
5:15 AM 8:54 PM
New Moon, 2% visible
METAR CYND 250100Z 33002KT 15SM FEW052 BKN100 16/14 A2978 RMK CU1AC5 CU TR LAST STFD OBS/NEXT 251100 UTC SLP085 DENSITY ALT 600FT

Get Severe Weather Alerts

Thanks for signing up!

Be on the lookout for a verification email in your inbox.

You'll start receiving the daily forecast at 6 AM.

×

10-Day Weather Forecast

Almanac

Astronomy

Jun. 24, 2017 Rise Set
Actual Time
Civil Twilight
Nautical Twilight
Astronomical Twilight
Moon
Length of Visible Light
Length of Day
Tomorrow will be .
, % of the Moon is Illuminated

Today's Extremes

Country Highs Country Lows

Community

WunderPhotos

Category 6

Welcome to Category 6. This is the collective home for Weather Underground's featured writeups by Dr. Jeff Masters (right), Bob Henson (left), Chris Burt, and other regular contributors.

Nearby

Air Quality

  Air Quality AQ Index Pollutant
Not available.

Snow Depth

Station Depth Elevation

Earthquake Activity

City Distance Mag. Time & Date
Minimum magnitude displayed is 2.5.

Coastal Water Temperatures

Place Temperature

Stations

Nearby Weather Stations

Station Location Temp. Windchill Dew Point Humidity Wind Precip. Elev Updated Type
                   

Watches & Warnings

Special Weather Statement
Issued: Environment Canada
Special Weather Statement issued by Environment.  03:42 PM EDT Saturday 24 June 2017.
Isolated thunderstorms will continue early this evening. Some of these storms will produce small hail, wind gusts up to 60 km/h and brief heavy downpours.

###

Please continue to monitor alerts and forecasts issued by Environment Canada. To report severe weather, send an email to ec.cpio-tempetes-ospc-storms.ec@canada.ca or tweet reports using #ONStorm.
expires_epoch:1498364853